sensor_id;sensor_type;location;lat;lon;timestamp;temperature;humidity
1568;DHT22;777;47.156;8.326;2023-07-31T00:02:03;15.30;99.90
1568;DHT22;777;47.156;8.326;2023-07-31T00:04:30;15.20;99.90
1568;DHT22;777;47.156;8.326;2023-07-31T00:06:57;15.00;99.90
1568;DHT22;777;47.156;8.326;2023-07-31T00:09:24;15.20;99.90
1568;DHT22;777;47.156;8.326;2023-07-31T00:11:52;15.30;99.90
1568;DHT22;777;47.156;8.326;2023-07-31T00:14:19;15.20;99.90
1568;DHT22;777;47.156;8.326;2023-07-31T00:16:46;15.10;99.90
1568;DHT22;777;47.156;8.326;2023-07-31T00:19:13;15.00;99.90
1568;DHT22;777;47.156;8.326;2023-07-31T00:21:40;15.20;99.90
1568;DHT22;777;47.156;8.326;2023-07-31T00:24:07;15.40;99.90
1568;DHT22;777;47.156;8.326;2023-07-31T00:26:34;15.40;99.90
1568;DHT22;777;47.156;8.326;2023-07-31T00:29:03;15.30;99.90
1568;DHT22;777;47.156;8.326;2023-07-31T00:31:30;15.00;99.90
1568;DHT22;777;47.156;8.326;2023-07-31T00:33:57;14.60;99.90
1568;DHT22;777;47.156;8.326;2023-07-31T00:36:24;14.30;99.90
1568;DHT22;777;47.156;8.326;2023-07-31T00:38:51;14.50;99.90
1568;DHT22;777;47.156;8.326;2023-07-31T00:41:18;14.20;99.90
1568;DHT22;777;47.156;8.326;2023-07-31T00:43:45;14.40;99.90
1568;DHT22;777;47.156;8.326;2023-07-31T00:46:13;14.60;99.90
1568;DHT22;777;47.156;8.326;2023-07-31T00:48:40;14.60;99.90
1568;DHT22;777;47.156;8.326;2023-07-31T00:51:08;14.90;99.90
1568;DHT22;777;47.156;8.326;2023-07-31T00:53:35;14.60;99.90
1568;DHT22;777;47.156;8.326;2023-07-31T00:56:03;14.60;99.90
1568;DHT22;777;47.156;8.326;2023-07-31T00:58:30;14.50;99.90
1568;DHT22;777;47.156;8.326;2023-07-31T01:00:58;14.80;99.90
1568;DHT22;777;47.156;8.326;2023-07-31T01:03:26;15.20;99.90
1568;DHT22;777;47.156;8.326;2023-07-31T01:06:02;15.40;99.90
1568;DHT22;777;47.156;8.326;2023-07-31T01:08:37;15.40;99.90
1568;DHT22;777;47.156;8.326;2023-07-31T01:11:10;15.30;99.90
1568;DHT22;777;47.156;8.326;2023-07-31T01:13:39;15.20;99.90
1568;DHT22;777;47.156;8.326;2023-07-31T01:16:06;15.20;99.90
1568;DHT22;777;47.156;8.326;2023-07-31T01:18:35;15.20;99.90
1568;DHT22;777;47.156;8.326;2023-07-31T01:21:10;15.20;99.90
1568;DHT22;777;47.156;8.326;2023-07-31T01:26:45;15.30;99.90
1568;DHT22;777;47.156;8.326;2023-07-31T01:29:20;15.40;99.90
1568;DHT22;777;47.156;8.326;2023-07-31T01:31:50;15.20;99.90
1568;DHT22;777;47.156;8.326;2023-07-31T01:34:21;15.10;99.90
1568;DHT22;777;47.156;8.326;2023-07-31T01:36:48;15.00;99.90
1568;DHT22;777;47.156;8.326;2023-07-31T01:39:15;14.90;99.90
1568;DHT22;777;47.156;8.326;2023-07-31T01:41:44;15.10;99.90
1568;DHT22;777;47.156;8.326;2023-07-31T01:44:11;15.20;99.90
1568;DHT22;777;47.156;8.326;2023-07-31T01:46:38;15.30;99.90
1568;DHT22;777;47.156;8.326;2023-07-31T01:49:06;15.40;99.90
1568;DHT22;777;47.156;8.326;2023-07-31T01:51:33;15.30;99.90
1568;DHT22;777;47.156;8.326;2023-07-31T01:54:00;15.20;99.90
1568;DHT22;777;47.156;8.326;2023-07-31T01:56:27;15.00;99.90
1568;DHT22;777;47.156;8.326;2023-07-31T01:58:56;14.80;99.90
1568;DHT22;777;47.156;8.326;2023-07-31T02:01:23;14.60;99.90
1568;DHT22;777;47.156;8.326;2023-07-31T02:03:51;14.50;99.90
1568;DHT22;777;47.156;8.326;2023-07-31T02:06:18;14.40;99.90
1568;DHT22;777;47.156;8.326;2023-07-31T02:08:45;14.20;99.90
1568;DHT22;777;47.156;8.326;2023-07-31T02:11:12;14.00;99.90
1568;DHT22;777;47.156;8.326;2023-07-31T02:13:39;14.10;99.90
1568;DHT22;777;47.156;8.326;2023-07-31T02:16:08;14.20;99.90
1568;DHT22;777;47.156;8.326;2023-07-31T02:18:35;14.40;99.90
1568;DHT22;777;47.156;8.326;2023-07-31T02:21:02;14.20;99.90
1568;DHT22;777;47.156;8.326;2023-07-31T02:23:29;14.10;99.90
1568;DHT22;777;47.156;8.326;2023-07-31T02:25:56;14.20;99.90
1568;DHT22;777;47.156;8.326;2023-07-31T02:28:23;14.20;99.90
1568;DHT22;777;47.156;8.326;2023-07-31T02:30:50;14.30;99.90
1568;DHT22;777;47.156;8.326;2023-07-31T02:33:20;14.30;99.90
1568;DHT22;777;47.156;8.326;2023-07-31T02:35:47;14.20;99.90
1568;DHT22;777;47.156;8.326;2023-07-31T02:38:14;14.40;99.90
1568;DHT22;777;47.156;8.326;2023-07-31T02:40:41;14.30;99.90
1568;DHT22;777;47.156;8.326;2023-07-31T02:43:08;14.50;99.90
1568;DHT22;777;47.156;8.326;2023-07-31T02:45:36;14.60;99.90
1568;DHT22;777;47.156;8.326;2023-07-31T02:48:03;14.70;99.90
1568;DHT22;777;47.156;8.326;2023-07-31T02:50:32;14.60;99.90
1568;DHT22;777;47.156;8.326;2023-07-31T02:52:59;14.70;99.90
1568;DHT22;777;47.156;8.326;2023-07-31T02:55:26;14.90;99.90
1568;DHT22;777;47.156;8.326;2023-07-31T02:57:52;14.80;99.90
1568;DHT22;777;47.156;8.326;2023-07-31T03:00:20;14.40;99.90
1568;DHT22;777;47.156;8.326;2023-07-31T03:02:48;13.80;99.90
1568;DHT22;777;47.156;8.326;2023-07-31T03:05:15;14.00;99.90
1568;DHT22;777;47.156;8.326;2023-07-31T03:07:43;14.20;99.90
1568;DHT22;777;47.156;8.326;2023-07-31T03:10:10;13.70;99.90
1568;DHT22;777;47.156;8.326;2023-07-31T03:12:37;13.90;99.90
1568;DHT22;777;47.156;8.326;2023-07-31T03:15:05;14.00;99.90
1568;DHT22;777;47.156;8.326;2023-07-31T03:17:32;14.00;99.90
1568;DHT22;777;47.156;8.326;2023-07-31T03:20:00;14.20;99.90
1568;DHT22;777;47.156;8.326;2023-07-31T03:22:27;14.20;99.90
1568;DHT22;777;47.156;8.326;2023-07-31T03:24:55;14.00;99.90
1568;DHT22;777;47.156;8.326;2023-07-31T03:27:22;13.80;99.90
1568;DHT22;777;47.156;8.326;2023-07-31T03:29:49;13.70;99.90
1568;DHT22;777;47.156;8.326;2023-07-31T03:32:17;13.70;99.90
1568;DHT22;777;47.156;8.326;2023-07-31T03:34:44;13.70;99.90
1568;DHT22;777;47.156;8.326;2023-07-31T03:37:11;13.70;99.90
1568;DHT22;777;47.156;8.326;2023-07-31T03:39:38;13.80;99.90
1568;DHT22;777;47.156;8.326;2023-07-31T03:42:08;13.80;99.90
1568;DHT22;777;47.156;8.326;2023-07-31T03:44:35;13.70;99.90
1568;DHT22;777;47.156;8.326;2023-07-31T03:47:02;13.60;99.90
1568;DHT22;777;47.156;8.326;2023-07-31T03:49:29;13.60;99.90
1568;DHT22;777;47.156;8.326;2023-07-31T03:51:56;13.80;99.90
1568;DHT22;777;47.156;8.326;2023-07-31T03:54:23;13.70;99.90
1568;DHT22;777;47.156;8.326;2023-07-31T03:56:50;13.50;99.90
1568;DHT22;777;47.156;8.326;2023-07-31T03:59:19;13.40;99.90
1568;DHT22;777;47.156;8.326;2023-07-31T04:01:46;13.50;99.90
1568;DHT22;777;47.156;8.326;2023-07-31T04:04:13;13.50;99.90
1568;DHT22;777;47.156;8.326;2023-07-31T04:06:40;13.20;99.90
1568;DHT22;777;47.156;8.326;2023-07-31T04:09:06;13.10;99.90
1568;DHT22;777;47.156;8.326;2023-07-31T04:11:34;13.30;99.90
1568;DHT22;777;47.156;8.326;2023-07-31T04:14:01;13.30;99.90
1568;DHT22;777;47.156;8.326;2023-07-31T04:16:29;13.20;99.90
1568;DHT22;777;47.156;8.326;2023-07-31T04:18:56;13.30;99.90
1568;DHT22;777;47.156;8.326;2023-07-31T04:21:23;13.20;99.90
1568;DHT22;777;47.156;8.326;2023-07-31T04:23:50;13.30;99.90
1568;DHT22;777;47.156;8.326;2023-07-31T04:26:21;13.30;99.90
1568;DHT22;777;47.156;8.326;2023-07-31T04:28:48;13.50;99.90
1568;DHT22;777;47.156;8.326;2023-07-31T04:31:15;13.50;99.90
1568;DHT22;777;47.156;8.326;2023-07-31T04:33:43;13.60;99.90
1568;DHT22;777;47.156;8.326;2023-07-31T04:36:10;13.40;99.90
1568;DHT22;777;47.156;8.326;2023-07-31T04:38:38;13.10;99.90
1568;DHT22;777;47.156;8.326;2023-07-31T04:41:06;13.10;99.90
1568;DHT22;777;47.156;8.326;2023-07-31T04:43:33;13.40;99.90
1568;DHT22;777;47.156;8.326;2023-07-31T04:46:00;13.70;99.90
1568;DHT22;777;47.156;8.326;2023-07-31T04:48:27;14.00;99.90
1568;DHT22;777;47.156;8.326;2023-07-31T04:50:56;14.20;99.90
1568;DHT22;777;47.156;8.326;2023-07-31T04:53:23;14.50;99.90
1568;DHT22;777;47.156;8.326;2023-07-31T04:55:50;14.50;99.90
1568;DHT22;777;47.156;8.326;2023-07-31T04:58:17;14.40;99.90
1568;DHT22;777;47.156;8.326;2023-07-31T05:00:44;13.90;99.90
1568;DHT22;777;47.156;8.326;2023-07-31T05:03:11;14.10;99.90
1568;DHT22;777;47.156;8.326;2023-07-31T05:05:38;14.30;99.90
1568;DHT22;777;47.156;8.326;2023-07-31T05:08:07;14.20;99.90
1568;DHT22;777;47.156;8.326;2023-07-31T05:10:34;14.00;99.90
1568;DHT22;777;47.156;8.326;2023-07-31T05:13:01;14.20;99.90
1568;DHT22;777;47.156;8.326;2023-07-31T05:15:29;14.40;99.90
1568;DHT22;777;47.156;8.326;2023-07-31T05:17:56;14.50;99.90
1568;DHT22;777;47.156;8.326;2023-07-31T05:20:23;14.50;99.90
1568;DHT22;777;47.156;8.326;2023-07-31T05:22:50;14.50;99.90
1568;DHT22;777;47.156;8.326;2023-07-31T05:25:19;14.50;99.90
1568;DHT22;777;47.156;8.326;2023-07-31T05:27:46;14.80;99.90
1568;DHT22;777;47.156;8.326;2023-07-31T05:30:13;15.00;99.90
1568;DHT22;777;47.156;8.326;2023-07-31T05:32:40;15.30;99.90
1568;DHT22;777;47.156;8.326;2023-07-31T05:35:07;15.30;99.90
1568;DHT22;777;47.156;8.326;2023-07-31T05:37:34;15.20;99.90
1568;DHT22;777;47.156;8.326;2023-07-31T05:40:02;15.20;99.90
1568;DHT22;777;47.156;8.326;2023-07-31T05:42:30;15.40;99.90
1568;DHT22;777;47.156;8.326;2023-07-31T05:44:57;15.50;99.90
1568;DHT22;777;47.156;8.326;2023-07-31T05:47:24;15.10;99.90
1568;DHT22;777;47.156;8.326;2023-07-31T05:49:52;15.50;99.90
1568;DHT22;777;47.156;8.326;2023-07-31T05:52:19;15.20;99.90
1568;DHT22;777;47.156;8.326;2023-07-31T05:54:46;15.00;99.90
1568;DHT22;777;47.156;8.326;2023-07-31T05:57:12;15.20;99.90
1568;DHT22;777;47.156;8.326;2023-07-31T05:59:41;15.80;99.90
1568;DHT22;777;47.156;8.326;2023-07-31T06:02:08;16.40;99.90
1568;DHT22;777;47.156;8.326;2023-07-31T06:04:36;16.30;99.90
1568;DHT22;777;47.156;8.326;2023-07-31T06:07:03;16.10;99.90
1568;DHT22;777;47.156;8.326;2023-07-31T06:09:30;16.00;99.90
1568;DHT22;777;47.156;8.326;2023-07-31T06:11:57;16.10;99.90
1568;DHT22;777;47.156;8.326;2023-07-31T06:14:24;16.30;99.90
1568;DHT22;777;47.156;8.326;2023-07-31T06:16:53;16.80;99.90
1568;DHT22;777;47.156;8.326;2023-07-31T06:19:20;16.90;99.90
1568;DHT22;777;47.156;8.326;2023-07-31T06:21:47;17.10;99.90
1568;DHT22;777;47.156;8.326;2023-07-31T06:24:14;17.00;99.90
1568;DHT22;777;47.156;8.326;2023-07-31T06:26:44;16.60;99.90
1568;DHT22;777;47.156;8.326;2023-07-31T06:29:11;16.20;99.90
1568;DHT22;777;47.156;8.326;2023-07-31T06:31:38;16.00;99.90
1568;DHT22;777;47.156;8.326;2023-07-31T06:34:06;16.00;99.90
1568;DHT22;777;47.156;8.326;2023-07-31T06:36:34;16.10;99.90
1568;DHT22;777;47.156;8.326;2023-07-31T06:39:00;16.10;99.90
1568;DHT22;777;47.156;8.326;2023-07-31T06:41:27;16.50;99.90
1568;DHT22;777;47.156;8.326;2023-07-31T06:43:54;16.60;99.90
1568;DHT22;777;47.156;8.326;2023-07-31T06:46:21;16.90;99.90
1568;DHT22;777;47.156;8.326;2023-07-31T06:48:48;17.30;99.90
1568;DHT22;777;47.156;8.326;2023-07-31T06:51:17;17.10;99.90
1568;DHT22;777;47.156;8.326;2023-07-31T06:53:43;17.10;99.90
1568;DHT22;777;47.156;8.326;2023-07-31T06:56:11;17.60;99.90
1568;DHT22;777;47.156;8.326;2023-07-31T06:58:38;18.00;99.90
1568;DHT22;777;47.156;8.326;2023-07-31T07:01:05;19.20;99.90
1568;DHT22;777;47.156;8.326;2023-07-31T07:03:32;19.10;99.90
1568;DHT22;777;47.156;8.326;2023-07-31T07:05:59;18.70;99.90
1568;DHT22;777;47.156;8.326;2023-07-31T07:08:28;19.70;99.90
1568;DHT22;777;47.156;8.326;2023-07-31T07:10:55;20.80;99.90
1568;DHT22;777;47.156;8.326;2023-07-31T07:13:22;21.40;99.90
1568;DHT22;777;47.156;8.326;2023-07-31T07:15:49;21.50;99.90
1568;DHT22;777;47.156;8.326;2023-07-31T07:18:16;20.80;99.90
1568;DHT22;777;47.156;8.326;2023-07-31T07:20:46;20.80;99.90
1568;DHT22;777;47.156;8.326;2023-07-31T07:23:14;20.60;99.90
1568;DHT22;777;47.156;8.326;2023-07-31T07:25:42;21.10;99.90
1568;DHT22;777;47.156;8.326;2023-07-31T07:28:09;21.80;99.90
1568;DHT22;777;47.156;8.326;2023-07-31T07:30:36;22.60;99.90
1568;DHT22;777;47.156;8.326;2023-07-31T07:33:04;22.80;99.90
1568;DHT22;777;47.156;8.326;2023-07-31T07:35:33;22.00;99.90
1568;DHT22;777;47.156;8.326;2023-07-31T07:38:01;20.20;99.90
1568;DHT22;777;47.156;8.326;2023-07-31T07:40:28;19.60;99.90
1568;DHT22;777;47.156;8.326;2023-07-31T07:42:56;20.80;99.90
1568;DHT22;777;47.156;8.326;2023-07-31T07:45:23;21.10;99.90
1568;DHT22;777;47.156;8.326;2023-07-31T07:47:50;21.50;99.90
1568;DHT22;777;47.156;8.326;2023-07-31T07:50:17;22.90;99.90
1568;DHT22;777;47.156;8.326;2023-07-31T07:52:44;23.30;99.90
1568;DHT22;777;47.156;8.326;2023-07-31T07:55:11;23.50;99.90
1568;DHT22;777;47.156;8.326;2023-07-31T07:57:38;22.90;99.90
1568;DHT22;777;47.156;8.326;2023-07-31T08:00:08;23.00;99.90
1568;DHT22;777;47.156;8.326;2023-07-31T08:02:42;21.90;99.90
1568;DHT22;777;47.156;8.326;2023-07-31T08:05:09;20.50;99.90
1568;DHT22;777;47.156;8.326;2023-07-31T08:07:36;21.80;99.90
1568;DHT22;777;47.156;8.326;2023-07-31T08:10:03;22.60;99.90
1568;DHT22;777;47.156;8.326;2023-07-31T08:12:30;23.10;99.90
1568;DHT22;777;47.156;8.326;2023-07-31T08:14:57;22.80;99.90
1568;DHT22;777;47.156;8.326;2023-07-31T08:17:27;20.30;99.90
1568;DHT22;777;47.156;8.326;2023-07-31T08:19:54;19.50;99.90
1568;DHT22;777;47.156;8.326;2023-07-31T08:22:24;20.50;99.90
1568;DHT22;777;47.156;8.326;2023-07-31T08:24:51;22.00;99.90
1568;DHT22;777;47.156;8.326;2023-07-31T08:27:18;21.90;99.90
1568;DHT22;777;47.156;8.326;2023-07-31T08:29:46;22.70;99.90
1568;DHT22;777;47.156;8.326;2023-07-31T08:32:12;23.20;99.90
1568;DHT22;777;47.156;8.326;2023-07-31T08:34:41;22.80;99.90
1568;DHT22;777;47.156;8.326;2023-07-31T08:37:08;23.00;99.90
1568;DHT22;777;47.156;8.326;2023-07-31T08:39:36;22.40;99.90
1568;DHT22;777;47.156;8.326;2023-07-31T08:42:07;22.40;99.90
1568;DHT22;777;47.156;8.326;2023-07-31T08:44:35;24.20;99.90
1568;DHT22;777;47.156;8.326;2023-07-31T08:47:02;24.40;99.90
1568;DHT22;777;47.156;8.326;2023-07-31T08:49:30;22.30;99.90
1568;DHT22;777;47.156;8.326;2023-07-31T08:51:59;21.70;99.90
1568;DHT22;777;47.156;8.326;2023-07-31T08:54:26;22.70;99.90
1568;DHT22;777;47.156;8.326;2023-07-31T08:56:57;22.50;99.90
1568;DHT22;777;47.156;8.326;2023-07-31T08:59:27;21.80;99.90
1568;DHT22;777;47.156;8.326;2023-07-31T09:01:56;21.10;99.90
1568;DHT22;777;47.156;8.326;2023-07-31T09:04:25;21.30;99.90
1568;DHT22;777;47.156;8.326;2023-07-31T09:06:57;20.70;99.90
1568;DHT22;777;47.156;8.326;2023-07-31T09:09:27;20.00;99.90
1568;DHT22;777;47.156;8.326;2023-07-31T09:11:55;21.10;99.90
1568;DHT22;777;47.156;8.326;2023-07-31T09:14:24;21.20;99.90
1568;DHT22;777;47.156;8.326;2023-07-31T09:16:52;21.50;99.90
1568;DHT22;777;47.156;8.326;2023-07-31T09:19:27;21.50;99.90
1568;DHT22;777;47.156;8.326;2023-07-31T09:21:54;20.40;99.90
1568;DHT22;777;47.156;8.326;2023-07-31T09:24:30;20.70;99.90
1568;DHT22;777;47.156;8.326;2023-07-31T09:26:58;20.80;99.90
1568;DHT22;777;47.156;8.326;2023-07-31T09:29:27;20.50;99.90
1568;DHT22;777;47.156;8.326;2023-07-31T09:31:55;20.20;99.90
1568;DHT22;777;47.156;8.326;2023-07-31T09:34:29;20.80;99.90
1568;DHT22;777;47.156;8.326;2023-07-31T09:37:01;21.30;99.90
1568;DHT22;777;47.156;8.326;2023-07-31T09:39:30;21.50;99.90
1568;DHT22;777;47.156;8.326;2023-07-31T09:41:57;20.50;99.90
1568;DHT22;777;47.156;8.326;2023-07-31T09:44:37;21.10;99.90
1568;DHT22;777;47.156;8.326;2023-07-31T09:47:05;21.20;99.90
1568;DHT22;777;47.156;8.326;2023-07-31T09:49:32;21.00;99.90
1568;DHT22;777;47.156;8.326;2023-07-31T09:51:59;21.80;99.90
1568;DHT22;777;47.156;8.326;2023-07-31T09:54:26;22.30;99.90
1568;DHT22;777;47.156;8.326;2023-07-31T09:56:58;22.40;99.90
1568;DHT22;777;47.156;8.326;2023-07-31T09:59:26;21.90;99.90
1568;DHT22;777;47.156;8.326;2023-07-31T10:01:54;22.00;99.90
1568;DHT22;777;47.156;8.326;2023-07-31T10:04:27;22.50;99.90
1568;DHT22;777;47.156;8.326;2023-07-31T10:06:55;22.80;99.90
1568;DHT22;777;47.156;8.326;2023-07-31T10:09:24;22.90;99.90
1568;DHT22;777;47.156;8.326;2023-07-31T10:11:59;22.00;99.90
1568;DHT22;777;47.156;8.326;2023-07-31T10:14:27;22.50;99.90
1568;DHT22;777;47.156;8.326;2023-07-31T10:16:55;22.30;99.90
1568;DHT22;777;47.156;8.326;2023-07-31T10:19:22;22.00;99.90
1568;DHT22;777;47.156;8.326;2023-07-31T10:21:50;21.70;99.90
1568;DHT22;777;47.156;8.326;2023-07-31T10:24:18;21.80;99.90
1568;DHT22;777;47.156;8.326;2023-07-31T10:26:47;21.80;99.90
1568;DHT22;777;47.156;8.326;2023-07-31T10:29:17;21.60;99.90
1568;DHT22;777;47.156;8.326;2023-07-31T10:31:46;21.30;99.90
1568;DHT22;777;47.156;8.326;2023-07-31T10:34:14;22.60;99.90
1568;DHT22;777;47.156;8.326;2023-07-31T10:36:41;23.50;99.90
1568;DHT22;777;47.156;8.326;2023-07-31T10:39:33;24.40;99.90
1568;DHT22;777;47.156;8.326;2023-07-31T10:42:10;25.00;99.90
1568;DHT22;777;47.156;8.326;2023-07-31T10:44:43;25.60;99.90
1568;DHT22;777;47.156;8.326;2023-07-31T10:47:10;25.10;99.90
1568;DHT22;777;47.156;8.326;2023-07-31T10:49:39;23.60;99.90
1568;DHT22;777;47.156;8.326;2023-07-31T10:52:10;23.10;99.90
1568;DHT22;777;47.156;8.326;2023-07-31T10:54:39;23.40;99.90
1568;DHT22;777;47.156;8.326;2023-07-31T10:57:19;23.90;99.90
1568;DHT22;777;47.156;8.326;2023-07-31T10:59:48;24.60;99.90
1568;DHT22;777;47.156;8.326;2023-07-31T11:02:25;24.20;99.90
1568;DHT22;777;47.156;8.326;2023-07-31T11:05:08;24.90;99.90
1568;DHT22;777;47.156;8.326;2023-07-31T11:07:48;24.50;99.90
1568;DHT22;777;47.156;8.326;2023-07-31T11:10:18;23.20;99.90
1568;DHT22;777;47.156;8.326;2023-07-31T11:12:45;22.50;99.90
1568;DHT22;777;47.156;8.326;2023-07-31T11:15:14;22.60;99.90
1568;DHT22;777;47.156;8.326;2023-07-31T11:17:41;23.70;99.90
1568;DHT22;777;47.156;8.326;2023-07-31T11:20:09;24.20;99.90
1568;DHT22;777;47.156;8.326;2023-07-31T11:22:36;24.70;99.90
1568;DHT22;777;47.156;8.326;2023-07-31T11:25:03;25.10;99.90
1568;DHT22;777;47.156;8.326;2023-07-31T11:27:31;25.80;99.90
1568;DHT22;777;47.156;8.326;2023-07-31T11:30:06;24.70;99.90
1568;DHT22;777;47.156;8.326;2023-07-31T11:32:36;24.60;99.90
1568;DHT22;777;47.156;8.326;2023-07-31T11:35:03;24.10;99.90
1568;DHT22;777;47.156;8.326;2023-07-31T11:37:41;25.60;99.90
1568;DHT22;777;47.156;8.326;2023-07-31T11:40:09;26.20;99.90
1568;DHT22;777;47.156;8.326;2023-07-31T11:42:37;26.50;99.90
1568;DHT22;777;47.156;8.326;2023-07-31T11:45:04;26.80;99.90
1568;DHT22;777;47.156;8.326;2023-07-31T11:47:34;24.20;99.90
1568;DHT22;777;47.156;8.326;2023-07-31T11:50:02;24.40;99.90
1568;DHT22;777;47.156;8.326;2023-07-31T11:52:30;24.90;99.90
1568;DHT22;777;47.156;8.326;2023-07-31T11:54:58;25.50;99.90
1568;DHT22;777;47.156;8.326;2023-07-31T11:57:26;26.20;99.90
1568;DHT22;777;47.156;8.326;2023-07-31T11:59:55;26.50;99.90
1568;DHT22;777;47.156;8.326;2023-07-31T12:02:23;26.70;99.90
1568;DHT22;777;47.156;8.326;2023-07-31T12:04:51;26.80;99.90
1568;DHT22;777;47.156;8.326;2023-07-31T12:07:18;26.90;99.90
1568;DHT22;777;47.156;8.326;2023-07-31T12:09:52;26.00;99.90
1568;DHT22;777;47.156;8.326;2023-07-31T12:12:20;27.30;99.90
1568;DHT22;777;47.156;8.326;2023-07-31T12:14:47;27.80;99.90
1568;DHT22;777;47.156;8.326;2023-07-31T12:17:16;27.30;99.90
1568;DHT22;777;47.156;8.326;2023-07-31T12:19:43;28.30;99.90
1568;DHT22;777;47.156;8.326;2023-07-31T12:22:16;29.00;99.90
1568;DHT22;777;47.156;8.326;2023-07-31T12:24:43;29.30;99.90
1568;DHT22;777;47.156;8.326;2023-07-31T12:27:11;29.70;99.90
1568;DHT22;777;47.156;8.326;2023-07-31T12:29:39;30.20;99.90
1568;DHT22;777;47.156;8.326;2023-07-31T12:32:21;30.40;99.90
1568;DHT22;777;47.156;8.326;2023-07-31T12:34:49;29.30;99.90
1568;DHT22;777;47.156;8.326;2023-07-31T12:37:18;27.30;99.90
1568;DHT22;777;47.156;8.326;2023-07-31T12:39:45;29.10;99.90
1568;DHT22;777;47.156;8.326;2023-07-31T12:42:12;30.00;99.90
1568;DHT22;777;47.156;8.326;2023-07-31T12:44:39;30.10;99.90
1568;DHT22;777;47.156;8.326;2023-07-31T12:47:06;28.40;99.90
1568;DHT22;777;47.156;8.326;2023-07-31T12:49:33;28.90;99.90
1568;DHT22;777;47.156;8.326;2023-07-31T12:52:00;28.90;99.90
1568;DHT22;777;47.156;8.326;2023-07-31T12:54:28;29.60;99.90
1568;DHT22;777;47.156;8.326;2023-07-31T12:56:55;28.80;99.90
1568;DHT22;777;47.156;8.326;2023-07-31T12:59:22;29.90;99.90
1568;DHT22;777;47.156;8.326;2023-07-31T13:01:49;30.30;99.90
1568;DHT22;777;47.156;8.326;2023-07-31T13:04:16;28.10;99.90
1568;DHT22;777;47.156;8.326;2023-07-31T13:06:43;27.70;99.90
1568;DHT22;777;47.156;8.326;2023-07-31T13:09:11;29.10;99.90
1568;DHT22;777;47.156;8.326;2023-07-31T13:11:39;27.30;99.90
1568;DHT22;777;47.156;8.326;2023-07-31T13:14:06;27.60;99.90
1568;DHT22;777;47.156;8.326;2023-07-31T13:16:33;27.40;99.90
1568;DHT22;777;47.156;8.326;2023-07-31T13:19:01;28.00;99.90
1568;DHT22;777;47.156;8.326;2023-07-31T13:21:28;28.40;99.90
1568;DHT22;777;47.156;8.326;2023-07-31T13:23:55;29.50;99.90
1568;DHT22;777;47.156;8.326;2023-07-31T13:26:23;28.90;97.00
1568;DHT22;777;47.156;8.326;2023-07-31T13:28:52;28.50;99.80
1568;DHT22;777;47.156;8.326;2023-07-31T13:31:18;29.00;99.90
1568;DHT22;777;47.156;8.326;2023-07-31T13:33:45;29.40;99.90
1568;DHT22;777;47.156;8.326;2023-07-31T13:36:13;29.60;99.90
1568;DHT22;777;47.156;8.326;2023-07-31T13:38:40;29.90;99.90
1568;DHT22;777;47.156;8.326;2023-07-31T13:41:07;30.00;98.20
1568;DHT22;777;47.156;8.326;2023-07-31T13:43:34;30.20;98.60
1568;DHT22;777;47.156;8.326;2023-07-31T13:46:02;29.60;98.20
1568;DHT22;777;47.156;8.326;2023-07-31T13:48:33;30.20;99.80
1568;DHT22;777;47.156;8.326;2023-07-31T13:51:00;31.00;98.50
1568;DHT22;777;47.156;8.326;2023-07-31T13:53:28;30.70;97.40
1568;DHT22;777;47.156;8.326;2023-07-31T13:55:55;30.30;98.30
1568;DHT22;777;47.156;8.326;2023-07-31T13:58:22;29.10;96.80
1568;DHT22;777;47.156;8.326;2023-07-31T14:00:49;29.10;97.50
1568;DHT22;777;47.156;8.326;2023-07-31T14:03:18;29.60;96.50
1568;DHT22;777;47.156;8.326;2023-07-31T14:05:45;29.60;98.00
1568;DHT22;777;47.156;8.326;2023-07-31T14:08:12;29.10;97.10
1568;DHT22;777;47.156;8.326;2023-07-31T14:10:39;28.80;97.30
1568;DHT22;777;47.156;8.326;2023-07-31T14:13:06;28.20;98.80
1568;DHT22;777;47.156;8.326;2023-07-31T14:15:33;28.50;99.90
1568;DHT22;777;47.156;8.326;2023-07-31T14:18:02;28.80;99.20
1568;DHT22;777;47.156;8.326;2023-07-31T14:20:30;28.80;98.50
1568;DHT22;777;47.156;8.326;2023-07-31T14:22:58;28.90;96.60
1568;DHT22;777;47.156;8.326;2023-07-31T14:25:25;29.10;96.90
1568;DHT22;777;47.156;8.326;2023-07-31T14:27:52;29.70;97.30
1568;DHT22;777;47.156;8.326;2023-07-31T14:30:20;29.90;96.50
1568;DHT22;777;47.156;8.326;2023-07-31T14:32:47;29.80;95.60
1568;DHT22;777;47.156;8.326;2023-07-31T14:35:14;29.20;96.00
1568;DHT22;777;47.156;8.326;2023-07-31T14:37:44;29.00;96.20
1568;DHT22;777;47.156;8.326;2023-07-31T14:40:13;29.80;95.40
1568;DHT22;777;47.156;8.326;2023-07-31T14:42:40;29.30;95.20
1568;DHT22;777;47.156;8.326;2023-07-31T14:45:08;28.80;95.20
1568;DHT22;777;47.156;8.326;2023-07-31T14:47:35;28.70;95.90
1568;DHT22;777;47.156;8.326;2023-07-31T14:50:03;28.90;95.60
1568;DHT22;777;47.156;8.326;2023-07-31T14:52:30;29.40;95.70
1568;DHT22;777;47.156;8.326;2023-07-31T14:54:59;29.60;95.70
1568;DHT22;777;47.156;8.326;2023-07-31T14:57:26;29.40;95.10
1568;DHT22;777;47.156;8.326;2023-07-31T14:59:53;29.70;95.30
1568;DHT22;777;47.156;8.326;2023-07-31T15:02:20;28.70;95.40
1568;DHT22;777;47.156;8.326;2023-07-31T15:04:47;29.40;95.60
1568;DHT22;777;47.156;8.326;2023-07-31T15:07:14;29.40;95.90
1568;DHT22;777;47.156;8.326;2023-07-31T15:09:41;28.90;95.50
1568;DHT22;777;47.156;8.326;2023-07-31T15:12:10;28.60;94.80
1568;DHT22;777;47.156;8.326;2023-07-31T15:14:37;29.40;94.90
1568;DHT22;777;47.156;8.326;2023-07-31T15:17:04;28.90;95.20
1568;DHT22;777;47.156;8.326;2023-07-31T15:19:31;28.10;95.80
1568;DHT22;777;47.156;8.326;2023-07-31T15:22:00;29.30;97.20
1568;DHT22;777;47.156;8.326;2023-07-31T15:24:28;28.70;94.70
1568;DHT22;777;47.156;8.326;2023-07-31T15:26:55;28.50;95.60
1568;DHT22;777;47.156;8.326;2023-07-31T15:29:23;28.50;94.70
1568;DHT22;777;47.156;8.326;2023-07-31T15:31:51;28.50;94.00
1568;DHT22;777;47.156;8.326;2023-07-31T15:34:18;28.40;94.10
1568;DHT22;777;47.156;8.326;2023-07-31T15:36:46;27.70;94.80
1568;DHT22;777;47.156;8.326;2023-07-31T15:39:13;28.70;94.80
1568;DHT22;777;47.156;8.326;2023-07-31T15:41:41;29.00;94.90
1568;DHT22;777;47.156;8.326;2023-07-31T15:44:08;29.70;94.70
1568;DHT22;777;47.156;8.326;2023-07-31T15:46:36;29.60;93.70
1568;DHT22;777;47.156;8.326;2023-07-31T15:49:04;29.80;94.40
1568;DHT22;777;47.156;8.326;2023-07-31T15:51:32;29.20;94.90
1568;DHT22;777;47.156;8.326;2023-07-31T15:53:59;28.30;94.40
1568;DHT22;777;47.156;8.326;2023-07-31T15:56:26;27.80;96.00
1568;DHT22;777;47.156;8.326;2023-07-31T15:58:53;27.50;95.60
1568;DHT22;777;47.156;8.326;2023-07-31T16:01:23;27.00;95.90
1568;DHT22;777;47.156;8.326;2023-07-31T16:03:51;27.50;95.50
1568;DHT22;777;47.156;8.326;2023-07-31T16:06:19;28.10;94.70
1568;DHT22;777;47.156;8.326;2023-07-31T16:08:46;28.80;94.60
1568;DHT22;777;47.156;8.326;2023-07-31T16:11:13;28.90;94.90
1568;DHT22;777;47.156;8.326;2023-07-31T16:13:40;26.20;94.80
1568;DHT22;777;47.156;8.326;2023-07-31T16:16:08;25.80;96.50
1568;DHT22;777;47.156;8.326;2023-07-31T16:18:35;25.70;97.00
1568;DHT22;777;47.156;8.326;2023-07-31T16:21:03;25.90;97.40
1568;DHT22;777;47.156;8.326;2023-07-31T16:23:30;26.10;98.10
1568;DHT22;777;47.156;8.326;2023-07-31T16:25:57;26.10;98.30